sensor_id;sensor_type;location;lat;lon;timestamp;P1;durP1;ratioP1;P2;durP2;ratioP2
38132;SDS011;23948;43.252;26.572;2022-12-10T00:00:30;78.20;;;43.15;;
38132;SDS011;23948;43.252;26.572;2022-12-10T00:02:55;74.85;;;44.85;;
38132;SDS011;23948;43.252;26.572;2022-12-10T00:05:21;90.63;;;42.67;;
38132;SDS011;23948;43.252;26.572;2022-12-10T00:07:46;80.10;;;45.22;;
38132;SDS011;23948;43.252;26.572;2022-12-10T00:10:11;83.00;;;44.22;;
38132;SDS011;23948;43.252;26.572;2022-12-10T00:12:36;85.10;;;44.83;;
38132;SDS011;23948;43.252;26.572;2022-12-10T00:15:02;71.63;;;40.85;;
38132;SDS011;23948;43.252;26.572;2022-12-10T00:17:27;71.38;;;41.53;;
38132;SDS011;23948;43.252;26.572;2022-12-10T00:19:52;68.13;;;38.67;;
38132;SDS011;23948;43.252;26.572;2022-12-10T00:22:18;58.47;;;33.15;;
38132;SDS011;23948;43.252;26.572;2022-12-10T00:24:43;60.95;;;31.42;;
38132;SDS011;23948;43.252;26.572;2022-12-10T00:27:08;60.50;;;32.70;;
38132;SDS011;23948;43.252;26.572;2022-12-10T00:29:33;60.90;;;36.88;;
38132;SDS011;23948;43.252;26.572;2022-12-10T00:31:59;56.17;;;36.17;;
38132;SDS011;23948;43.252;26.572;2022-12-10T00:34:24;65.53;;;36.75;;
38132;SDS011;23948;43.252;26.572;2022-12-10T00:36:49;66.45;;;38.97;;
38132;SDS011;23948;43.252;26.572;2022-12-10T00:39:16;61.50;;;36.47;;
38132;SDS011;23948;43.252;26.572;2022-12-10T00:41:42;65.65;;;36.05;;
38132;SDS011;23948;43.252;26.572;2022-12-10T00:44:07;54.80;;;32.60;;
38132;SDS011;23948;43.252;26.572;2022-12-10T00:46:33;58.90;;;33.13;;
38132;SDS011;23948;43.252;26.572;2022-12-10T00:48:58;60.83;;;31.40;;
38132;SDS011;23948;43.252;26.572;2022-12-10T00:51:25;48.88;;;28.77;;
38132;SDS011;23948;43.252;26.572;2022-12-10T00:53:51;53.15;;;30.02;;
38132;SDS011;23948;43.252;26.572;2022-12-10T00:56:17;55.10;;;29.08;;
38132;SDS011;23948;43.252;26.572;2022-12-10T00:58:43;69.72;;;34.38;;
38132;SDS011;23948;43.252;26.572;2022-12-10T01:01:31;65.65;;;32.28;;
38132;SDS011;23948;43.252;26.572;2022-12-10T01:03:57;60.00;;;32.08;;
38132;SDS011;23948;43.252;26.572;2022-12-10T01:06:23;53.50;;;29.67;;
38132;SDS011;23948;43.252;26.572;2022-12-10T01:08:49;67.57;;;31.75;;
38132;SDS011;23948;43.252;26.572;2022-12-10T01:11:16;62.58;;;32.00;;
38132;SDS011;23948;43.252;26.572;2022-12-10T01:13:42;65.43;;;31.65;;
38132;SDS011;23948;43.252;26.572;2022-12-10T01:16:08;82.07;;;39.53;;
38132;SDS011;23948;43.252;26.572;2022-12-10T01:18:34;63.22;;;33.40;;
38132;SDS011;23948;43.252;26.572;2022-12-10T01:21:00;54.42;;;30.60;;
38132;SDS011;23948;43.252;26.572;2022-12-10T01:23:26;78.38;;;33.47;;
38132;SDS011;23948;43.252;26.572;2022-12-10T01:25:52;57.05;;;30.58;;
38132;SDS011;23948;43.252;26.572;2022-12-10T01:28:17;62.33;;;32.35;;
38132;SDS011;23948;43.252;26.572;2022-12-10T01:30:42;60.35;;;32.25;;
38132;SDS011;23948;43.252;26.572;2022-12-10T01:33:08;62.50;;;33.15;;
38132;SDS011;23948;43.252;26.572;2022-12-10T01:35:35;71.35;;;32.00;;
38132;SDS011;23948;43.252;26.572;2022-12-10T01:38:00;58.17;;;26.30;;
38132;SDS011;23948;43.252;26.572;2022-12-10T01:40:26;49.08;;;26.63;;
38132;SDS011;23948;43.252;26.572;2022-12-10T01:42:52;61.35;;;28.00;;
38132;SDS011;23948;43.252;26.572;2022-12-10T01:45:17;54.38;;;25.88;;
38132;SDS011;23948;43.252;26.572;2022-12-10T01:47:43;51.65;;;26.00;;
38132;SDS011;23948;43.252;26.572;2022-12-10T01:50:08;46.83;;;25.25;;
38132;SDS011;23948;43.252;26.572;2022-12-10T01:52:33;52.42;;;27.27;;
38132;SDS011;23948;43.252;26.572;2022-12-10T01:54:59;49.10;;;27.13;;
38132;SDS011;23948;43.252;26.572;2022-12-10T01:57:25;55.17;;;28.85;;
38132;SDS011;23948;43.252;26.572;2022-12-10T01:59:55;58.25;;;27.98;;
38132;SDS011;23948;43.252;26.572;2022-12-10T02:15:25;60.80;;;33.40;;
38132;SDS011;23948;43.252;26.572;2022-12-10T02:17:52;56.92;;;33.13;;
38132;SDS011;23948;43.252;26.572;2022-12-10T02:23:09;63.58;;;33.38;;
38132;SDS011;23948;43.252;26.572;2022-12-10T02:25:43;55.55;;;32.10;;
38132;SDS011;23948;43.252;26.572;2022-12-10T02:28:21;58.75;;;30.02;;
38132;SDS011;23948;43.252;26.572;2022-12-10T02:30:49;65.35;;;28.52;;
38132;SDS011;23948;43.252;26.572;2022-12-10T02:33:16;68.57;;;28.40;;
38132;SDS011;23948;43.252;26.572;2022-12-10T02:35:42;53.45;;;30.33;;
38132;SDS011;23948;43.252;26.572;2022-12-10T02:38:11;71.30;;;31.40;;
38132;SDS011;23948;43.252;26.572;2022-12-10T02:40:36;79.38;;;31.08;;
38132;SDS011;23948;43.252;26.572;2022-12-10T02:43:05;61.15;;;32.05;;
38132;SDS011;23948;43.252;26.572;2022-12-10T02:45:31;64.97;;;28.63;;
38132;SDS011;23948;43.252;26.572;2022-12-10T02:47:57;59.03;;;30.85;;
38132;SDS011;23948;43.252;26.572;2022-12-10T02:50:23;64.78;;;30.67;;
38132;SDS011;23948;43.252;26.572;2022-12-10T02:52:48;70.15;;;30.77;;
38132;SDS011;23948;43.252;26.572;2022-12-10T02:55:14;59.65;;;29.83;;
38132;SDS011;23948;43.252;26.572;2022-12-10T03:00:09;58.40;;;27.77;;
38132;SDS011;23948;43.252;26.572;2022-12-10T03:07:35;53.78;;;26.38;;
38132;SDS011;23948;43.252;26.572;2022-12-10T03:10:14;54.15;;;28.92;;
38132;SDS011;23948;43.252;26.572;2022-12-10T03:12:43;55.85;;;28.70;;
38132;SDS011;23948;43.252;26.572;2022-12-10T03:15:10;49.63;;;26.88;;
38132;SDS011;23948;43.252;26.572;2022-12-10T03:17:36;54.45;;;26.77;;
38132;SDS011;23948;43.252;26.572;2022-12-10T03:20:02;55.28;;;27.17;;
38132;SDS011;23948;43.252;26.572;2022-12-10T03:22:28;63.17;;;27.25;;
38132;SDS011;23948;43.252;26.572;2022-12-10T03:24:54;65.25;;;27.77;;
38132;SDS011;23948;43.252;26.572;2022-12-10T03:27:20;57.90;;;27.58;;
38132;SDS011;23948;43.252;26.572;2022-12-10T03:29:47;50.80;;;26.38;;
38132;SDS011;23948;43.252;26.572;2022-12-10T03:32:13;54.92;;;25.23;;
38132;SDS011;23948;43.252;26.572;2022-12-10T03:34:39;50.42;;;25.58;;
38132;SDS011;23948;43.252;26.572;2022-12-10T03:37:05;54.40;;;25.42;;
38132;SDS011;23948;43.252;26.572;2022-12-10T03:39:30;52.85;;;24.55;;
38132;SDS011;23948;43.252;26.572;2022-12-10T03:41:56;49.83;;;25.05;;
38132;SDS011;23948;43.252;26.572;2022-12-10T03:44:31;53.97;;;25.73;;
38132;SDS011;23948;43.252;26.572;2022-12-10T03:46:57;53.47;;;25.88;;
38132;SDS011;23948;43.252;26.572;2022-12-10T03:49:22;47.38;;;23.73;;
38132;SDS011;23948;43.252;26.572;2022-12-10T03:51:48;91.45;;;45.90;;
38132;SDS011;23948;43.252;26.572;2022-12-10T03:54:13;85.63;;;37.33;;
38132;SDS011;23948;43.252;26.572;2022-12-10T03:56:38;69.72;;;37.78;;
38132;SDS011;23948;43.252;26.572;2022-12-10T03:59:03;71.53;;;35.85;;
38132;SDS011;23948;43.252;26.572;2022-12-10T04:01:29;55.60;;;31.08;;
38132;SDS011;23948;43.252;26.572;2022-12-10T04:03:54;60.60;;;33.35;;
38132;SDS011;23948;43.252;26.572;2022-12-10T04:06:19;96.80;;;63.17;;
38132;SDS011;23948;43.252;26.572;2022-12-10T04:08:45;101.32;;;62.60;;
38132;SDS011;23948;43.252;26.572;2022-12-10T04:11:11;83.97;;;53.35;;
38132;SDS011;23948;43.252;26.572;2022-12-10T04:13:37;79.32;;;47.83;;
38132;SDS011;23948;43.252;26.572;2022-12-10T04:16:21;69.55;;;43.55;;
38132;SDS011;23948;43.252;26.572;2022-12-10T04:19:03;78.03;;;41.00;;
38132;SDS011;23948;43.252;26.572;2022-12-10T04:21:29;77.63;;;46.22;;
38132;SDS011;23948;43.252;26.572;2022-12-10T04:24:14;72.90;;;41.55;;
38132;SDS011;23948;43.252;26.572;2022-12-10T04:26:59;77.13;;;45.80;;
38132;SDS011;23948;43.252;26.572;2022-12-10T04:29:26;71.18;;;38.90;;
38132;SDS011;23948;43.252;26.572;2022-12-10T04:31:53;63.17;;;36.25;;
38132;SDS011;23948;43.252;26.572;2022-12-10T04:34:19;60.88;;;34.35;;
38132;SDS011;23948;43.252;26.572;2022-12-10T04:36:44;61.38;;;35.33;;
38132;SDS011;23948;43.252;26.572;2022-12-10T04:39:10;65.70;;;35.33;;
38132;SDS011;23948;43.252;26.572;2022-12-10T04:41:39;59.65;;;35.08;;
38132;SDS011;23948;43.252;26.572;2022-12-10T04:44:05;54.80;;;33.88;;
38132;SDS011;23948;43.252;26.572;2022-12-10T04:46:30;55.20;;;35.55;;
38132;SDS011;23948;43.252;26.572;2022-12-10T04:48:55;57.60;;;33.95;;
38132;SDS011;23948;43.252;26.572;2022-12-10T04:51:21;59.85;;;34.30;;
38132;SDS011;23948;43.252;26.572;2022-12-10T04:53:46;55.80;;;33.42;;
38132;SDS011;23948;43.252;26.572;2022-12-10T04:56:11;72.82;;;33.55;;
38132;SDS011;23948;43.252;26.572;2022-12-10T04:58:36;54.00;;;30.88;;
38132;SDS011;23948;43.252;26.572;2022-12-10T05:01:05;45.80;;;24.65;;
38132;SDS011;23948;43.252;26.572;2022-12-10T05:03:31;54.65;;;26.73;;
38132;SDS011;23948;43.252;26.572;2022-12-10T05:06:03;50.35;;;27.38;;
38132;SDS011;23948;43.252;26.572;2022-12-10T05:08:28;42.70;;;26.38;;
38132;SDS011;23948;43.252;26.572;2022-12-10T05:10:54;46.83;;;27.33;;
38132;SDS011;23948;43.252;26.572;2022-12-10T05:13:19;54.75;;;28.13;;
38132;SDS011;23948;43.252;26.572;2022-12-10T05:15:44;52.45;;;32.70;;
38132;SDS011;23948;43.252;26.572;2022-12-10T05:18:10;46.47;;;30.80;;
38132;SDS011;23948;43.252;26.572;2022-12-10T05:20:35;54.55;;;32.20;;
38132;SDS011;23948;43.252;26.572;2022-12-10T05:23:00;50.47;;;29.85;;
38132;SDS011;23948;43.252;26.572;2022-12-10T05:25:44;49.85;;;31.85;;
38132;SDS011;23948;43.252;26.572;2022-12-10T05:28:18;55.20;;;31.77;;
38132;SDS011;23948;43.252;26.572;2022-12-10T05:30:44;59.85;;;32.80;;
38132;SDS011;23948;43.252;26.572;2022-12-10T05:33:09;48.22;;;32.50;;
38132;SDS011;23948;43.252;26.572;2022-12-10T05:35:34;59.97;;;34.05;;
38132;SDS011;23948;43.252;26.572;2022-12-10T05:37:59;54.28;;;35.63;;
38132;SDS011;23948;43.252;26.572;2022-12-10T05:40:25;104.00;;;67.40;;
38132;SDS011;23948;43.252;26.572;2022-12-10T05:42:50;66.75;;;46.03;;
38132;SDS011;23948;43.252;26.572;2022-12-10T05:45:16;57.63;;;41.15;;
38132;SDS011;23948;43.252;26.572;2022-12-10T05:47:41;60.50;;;37.78;;
38132;SDS011;23948;43.252;26.572;2022-12-10T05:50:06;65.32;;;37.47;;
38132;SDS011;23948;43.252;26.572;2022-12-10T05:52:31;77.18;;;46.05;;
38132;SDS011;23948;43.252;26.572;2022-12-10T05:54:57;75.20;;;46.95;;
38132;SDS011;23948;43.252;26.572;2022-12-10T05:57:22;91.30;;;57.85;;
38132;SDS011;23948;43.252;26.572;2022-12-10T05:59:48;119.43;;;76.22;;
38132;SDS011;23948;43.252;26.572;2022-12-10T06:02:13;93.22;;;58.53;;
38132;SDS011;23948;43.252;26.572;2022-12-10T06:04:38;85.75;;;55.83;;
38132;SDS011;23948;43.252;26.572;2022-12-10T06:07:03;107.97;;;73.28;;
38132;SDS011;23948;43.252;26.572;2022-12-10T06:09:29;91.07;;;62.13;;
38132;SDS011;23948;43.252;26.572;2022-12-10T06:11:54;90.47;;;60.78;;
38132;SDS011;23948;43.252;26.572;2022-12-10T06:14:19;92.45;;;61.42;;
38132;SDS011;23948;43.252;26.572;2022-12-10T06:16:45;87.32;;;58.45;;
38132;SDS011;23948;43.252;26.572;2022-12-10T06:19:10;155.48;;;107.55;;
38132;SDS011;23948;43.252;26.572;2022-12-10T06:21:35;143.30;;;102.25;;
38132;SDS011;23948;43.252;26.572;2022-12-10T06:24:00;155.90;;;110.82;;
38132;SDS011;23948;43.252;26.572;2022-12-10T06:26:26;136.50;;;92.93;;
38132;SDS011;23948;43.252;26.572;2022-12-10T06:28:51;116.47;;;83.32;;
38132;SDS011;23948;43.252;26.572;2022-12-10T06:31:17;104.13;;;75.13;;
38132;SDS011;23948;43.252;26.572;2022-12-10T06:33:42;102.30;;;72.20;;
38132;SDS011;23948;43.252;26.572;2022-12-10T06:36:08;94.40;;;70.25;;
38132;SDS011;23948;43.252;26.572;2022-12-10T06:38:34;97.90;;;68.95;;
38132;SDS011;23948;43.252;26.572;2022-12-10T06:40:59;108.13;;;72.00;;
38132;SDS011;23948;43.252;26.572;2022-12-10T06:43:27;99.20;;;69.35;;
38132;SDS011;23948;43.252;26.572;2022-12-10T06:45:53;101.07;;;71.60;;
38132;SDS011;23948;43.252;26.572;2022-12-10T06:48:18;88.15;;;65.38;;
38132;SDS011;23948;43.252;26.572;2022-12-10T06:50:43;86.07;;;56.42;;
38132;SDS011;23948;43.252;26.572;2022-12-10T06:53:09;135.98;;;93.25;;
38132;SDS011;23948;43.252;26.572;2022-12-10T06:55:35;107.85;;;75.00;;
38132;SDS011;23948;43.252;26.572;2022-12-10T06:58:01;104.85;;;68.82;;
38132;SDS011;23948;43.252;26.572;2022-12-10T07:00:26;78.07;;;48.67;;
38132;SDS011;23948;43.252;26.572;2022-12-10T07:02:51;78.38;;;49.58;;
38132;SDS011;23948;43.252;26.572;2022-12-10T07:05:17;83.20;;;57.58;;
38132;SDS011;23948;43.252;26.572;2022-12-10T07:07:42;105.53;;;72.72;;
38132;SDS011;23948;43.252;26.572;2022-12-10T07:10:08;100.63;;;65.63;;
38132;SDS011;23948;43.252;26.572;2022-12-10T07:12:33;79.32;;;53.17;;
38132;SDS011;23948;43.252;26.572;2022-12-10T07:14:58;71.00;;;44.60;;
38132;SDS011;23948;43.252;26.572;2022-12-10T07:17:23;80.60;;;51.80;;
38132;SDS011;23948;43.252;26.572;2022-12-10T07:19:49;80.32;;;51.30;;
38132;SDS011;23948;43.252;26.572;2022-12-10T07:22:14;73.20;;;50.15;;
38132;SDS011;23948;43.252;26.572;2022-12-10T07:24:39;66.80;;;45.20;;
38132;SDS011;23948;43.252;26.572;2022-12-10T07:27:05;62.90;;;44.92;;
38132;SDS011;23948;43.252;26.572;2022-12-10T07:29:31;59.33;;;44.35;;
38132;SDS011;23948;43.252;26.572;2022-12-10T07:31:56;59.90;;;38.80;;
38132;SDS011;23948;43.252;26.572;2022-12-10T07:34:21;49.42;;;33.33;;
38132;SDS011;23948;43.252;26.572;2022-12-10T07:36:46;58.17;;;36.40;;
38132;SDS011;23948;43.252;26.572;2022-12-10T07:39:12;46.95;;;30.70;;
38132;SDS011;23948;43.252;26.572;2022-12-10T07:41:42;50.00;;;31.27;;
38132;SDS011;23948;43.252;26.572;2022-12-10T07:44:09;41.00;;;30.55;;
38132;SDS011;23948;43.252;26.572;2022-12-10T07:46:35;41.38;;;28.13;;
38132;SDS011;23948;43.252;26.572;2022-12-10T07:49:01;52.05;;;32.08;;
38132;SDS011;23948;43.252;26.572;2022-12-10T07:51:26;42.42;;;26.38;;
38132;SDS011;23948;43.252;26.572;2022-12-10T07:53:52;44.67;;;25.88;;
38132;SDS011;23948;43.252;26.572;2022-12-10T07:56:18;40.35;;;27.45;;
38132;SDS011;23948;43.252;26.572;2022-12-10T07:58:44;46.53;;;28.65;;
38132;SDS011;23948;43.252;26.572;2022-12-10T08:01:14;37.90;;;27.98;;
38132;SDS011;23948;43.252;26.572;2022-12-10T08:03:40;53.28;;;34.92;;
38132;SDS011;23948;43.252;26.572;2022-12-10T08:06:07;63.70;;;42.53;;
38132;SDS011;23948;43.252;26.572;2022-12-10T08:08:33;67.15;;;44.88;;
38132;SDS011;23948;43.252;26.572;2022-12-10T08:10:59;68.63;;;44.92;;
38132;SDS011;23948;43.252;26.572;2022-12-10T08:13:25;62.83;;;43.33;;
38132;SDS011;23948;43.252;26.572;2022-12-10T08:15:50;59.83;;;42.92;;
38132;SDS011;23948;43.252;26.572;2022-12-10T08:18:15;66.07;;;41.28;;
38132;SDS011;23948;43.252;26.572;2022-12-10T08:20:40;61.25;;;41.10;;
38132;SDS011;23948;43.252;26.572;2022-12-10T08:23:06;63.97;;;43.38;;
38132;SDS011;23948;43.252;26.572;2022-12-10T08:25:31;69.75;;;43.60;;
38132;SDS011;23948;43.252;26.572;2022-12-10T08:27:56;62.00;;;43.15;;
38132;SDS011;23948;43.252;26.572;2022-12-10T08:30:22;81.88;;;54.83;;
38132;SDS011;23948;43.252;26.572;2022-12-10T08:32:48;63.42;;;47.70;;
38132;SDS011;23948;43.252;26.572;2022-12-10T08:35:13;66.35;;;44.03;;
38132;SDS011;23948;43.252;26.572;2022-12-10T08:37:40;65.65;;;44.25;;
38132;SDS011;23948;43.252;26.572;2022-12-10T08:40:06;85.55;;;62.20;;
38132;SDS011;23948;43.252;26.572;2022-12-10T08:42:31;73.30;;;50.05;;
38132;SDS011;23948;43.252;26.572;2022-12-10T08:44:57;60.00;;;44.00;;
38132;SDS011;23948;43.252;26.572;2022-12-10T08:47:22;71.80;;;51.13;;
38132;SDS011;23948;43.252;26.572;2022-12-10T08:49:47;59.53;;;42.20;;
38132;SDS011;23948;43.252;26.572;2022-12-10T08:52:13;69.55;;;47.42;;
38132;SDS011;23948;43.252;26.572;2022-12-10T08:54:38;74.47;;;50.47;;
38132;SDS011;23948;43.252;26.572;2022-12-10T08:57:03;61.28;;;39.70;;
38132;SDS011;23948;43.252;26.572;2022-12-10T08:59:28;55.88;;;33.90;;
38132;SDS011;23948;43.252;26.572;2022-12-10T09:01:54;67.43;;;40.35;;
38132;SDS011;23948;43.252;26.572;2022-12-10T09:04:19;73.70;;;45.90;;
38132;SDS011;23948;43.252;26.572;2022-12-10T09:06:44;116.28;;;62.17;;
38132;SDS011;23948;43.252;26.572;2022-12-10T09:09:10;80.20;;;36.90;;
38132;SDS011;23948;43.252;26.572;2022-12-10T09:11:35;45.58;;;19.95;;
38132;SDS011;23948;43.252;26.572;2022-12-10T09:14:01;40.25;;;23.40;;
38132;SDS011;23948;43.252;26.572;2022-12-10T09:16:33;64.40;;;31.48;;
38132;SDS011;23948;43.252;26.572;2022-12-10T09:18:59;53.30;;;29.25;;
38132;SDS011;23948;43.252;26.572;2022-12-10T09:21:25;41.95;;;19.58;;
38132;SDS011;23948;43.252;26.572;2022-12-10T09:23:50;68.28;;;39.67;;
38132;SDS011;23948;43.252;26.572;2022-12-10T09:26:16;42.47;;;27.92;;
38132;SDS011;23948;43.252;26.572;2022-12-10T09:28:42;77.32;;;51.08;;
38132;SDS011;23948;43.252;26.572;2022-12-10T09:31:08;48.72;;;34.13;;
38132;SDS011;23948;43.252;26.572;2022-12-10T09:33:33;41.83;;;22.70;;
38132;SDS011;23948;43.252;26.572;2022-12-10T09:35:59;36.67;;;21.70;;
38132;SDS011;23948;43.252;26.572;2022-12-10T09:38:24;27.48;;;14.38;;
38132;SDS011;23948;43.252;26.572;2022-12-10T09:41:00;32.58;;;15.65;;
38132;SDS011;23948;43.252;26.572;2022-12-10T09:51:29;33.83;;;16.92;;
38132;SDS011;23948;43.252;26.572;2022-12-10T09:53:57;48.88;;;24.98;;
38132;SDS011;23948;43.252;26.572;2022-12-10T09:56:26;43.38;;;22.40;;
38132;SDS011;23948;43.252;26.572;2022-12-10T09:58:53;32.45;;;16.13;;
38132;SDS011;23948;43.252;26.572;2022-12-10T10:01:19;38.30;;;19.40;;
38132;SDS011;23948;43.252;26.572;2022-12-10T10:03:48;40.50;;;20.08;;
38132;SDS011;23948;43.252;26.572;2022-12-10T10:06:13;29.83;;;16.40;;
38132;SDS011;23948;43.252;26.572;2022-12-10T10:08:46;38.28;;;20.00;;
38132;SDS011;23948;43.252;26.572;2022-12-10T10:11:16;38.42;;;20.67;;
38132;SDS011;23948;43.252;26.572;2022-12-10T10:13:53;35.92;;;20.25;;
38132;SDS011;23948;43.252;26.572;2022-12-10T10:16:24;34.63;;;13.13;;
38132;SDS011;23948;43.252;26.572;2022-12-10T10:19:00;28.67;;;11.82;;
38132;SDS011;23948;43.252;26.572;2022-12-10T10:21:27;21.83;;;11.38;;
38132;SDS011;23948;43.252;26.572;2022-12-10T10:23:53;30.23;;;13.27;;
38132;SDS011;23948;43.252;26.572;2022-12-10T10:26:19;34.13;;;13.80;;
38132;SDS011;23948;43.252;26.572;2022-12-10T10:28:44;24.83;;;13.45;;
38132;SDS011;23948;43.252;26.572;2022-12-10T10:31:22;23.05;;;11.77;;
38132;SDS011;23948;43.252;26.572;2022-12-10T10:33:52;16.23;;;8.07;;
38132;SDS011;23948;43.252;26.572;2022-12-10T10:36:28;10.32;;;5.03;;
38132;SDS011;23948;43.252;26.572;2022-12-10T10:38:54;16.88;;;5.90;;
38132;SDS011;23948;43.252;26.572;2022-12-10T10:41:19;13.02;;;3.70;;
38132;SDS011;23948;43.252;26.572;2022-12-10T10:43:45;12.43;;;5.03;;
38132;SDS011;23948;43.252;26.572;2022-12-10T10:46:21;11.68;;;4.55;;
38132;SDS011;23948;43.252;26.572;2022-12-10T10:48:47;16.88;;;5.05;;
38132;SDS011;23948;43.252;26.572;2022-12-10T10:58:46;21.85;;;6.10;;
38132;SDS011;23948;43.252;26.572;2022-12-10T11:01:12;12.93;;;4.60;;
38132;SDS011;23948;43.252;26.572;2022-12-10T11:03:37;21.00;;;11.02;;
38132;SDS011;23948;43.252;26.572;2022-12-10T11:06:10;18.70;;;9.07;;
38132;SDS011;23948;43.252;26.572;2022-12-10T11:08:37;14.60;;;7.18;;
38132;SDS011;23948;43.252;26.572;2022-12-10T11:11:05;14.05;;;6.20;;
38132;SDS011;23948;43.252;26.572;2022-12-10T11:13:31;12.55;;;6.70;;
38132;SDS011;23948;43.252;26.572;2022-12-10T11:16:10;14.90;;;5.63;;
38132;SDS011;23948;43.252;26.572;2022-12-10T11:18:36;9.35;;;5.38;;
38132;SDS011;23948;43.252;26.572;2022-12-10T11:21:21;17.60;;;7.88;;
38132;SDS011;23948;43.252;26.572;2022-12-10T11:23:48;10.63;;;3.70;;
38132;SDS011;23948;43.252;26.572;2022-12-10T11:29:05;15.45;;;4.68;;
38132;SDS011;23948;43.252;26.572;2022-12-10T11:49:25;11.90;;;4.18;;
38132;SDS011;23948;43.252;26.572;2022-12-10T12:05:03;17.05;;;6.25;;
38132;SDS011;23948;43.252;26.572;2022-12-10T12:13:04;21.38;;;10.30;;
38132;SDS011;23948;43.252;26.572;2022-12-10T12:17:56;34.83;;;18.40;;
38132;SDS011;23948;43.252;26.572;2022-12-10T12:20:25;37.42;;;17.83;;
38132;SDS011;23948;43.252;26.572;2022-12-10T12:23:14;29.98;;;13.10;;
38132;SDS011;23948;43.252;26.572;2022-12-10T12:25:42;14.90;;;6.40;;
38132;SDS011;23948;43.252;26.572;2022-12-10T12:30:34;19.80;;;6.40;;
38132;SDS011;23948;43.252;26.572;2022-12-10T12:40:44;19.55;;;6.82;;
38132;SDS011;23948;43.252;26.572;2022-12-10T12:43:21;18.70;;;6.63;;
38132;SDS011;23948;43.252;26.572;2022-12-10T12:45:49;14.52;;;6.30;;
38132;SDS011;23948;43.252;26.572;2022-12-10T12:50:43;22.85;;;8.93;;
38132;SDS011;23948;43.252;26.572;2022-12-10T12:53:13;23.08;;;9.68;;
38132;SDS011;23948;43.252;26.572;2022-12-10T12:58:16;16.52;;;8.45;;
38132;SDS011;23948;43.252;26.572;2022-12-10T13:00:43;24.05;;;10.98;;
38132;SDS011;23948;43.252;26.572;2022-12-10T13:05:54;30.42;;;13.90;;
38132;SDS011;23948;43.252;26.572;2022-12-10T13:13:21;28.10;;;13.55;;
38132;SDS011;23948;43.252;26.572;2022-12-10T13:15:48;37.03;;;14.07;;
38132;SDS011;23948;43.252;26.572;2022-12-10T13:23:31;58.88;;;27.95;;
38132;SDS011;23948;43.252;26.572;2022-12-10T13:25:58;44.40;;;20.80;;
38132;SDS011;23948;43.252;26.572;2022-12-10T13:28:28;43.90;;;20.02;;
38132;SDS011;23948;43.252;26.572;2022-12-10T13:33:19;42.03;;;22.17;;
38132;SDS011;23948;43.252;26.572;2022-12-10T13:35:55;40.58;;;22.38;;
38132;SDS011;23948;43.252;26.572;2022-12-10T13:38:25;35.15;;;13.07;;
38132;SDS011;23948;43.252;26.572;2022-12-10T13:41:01;36.50;;;16.27;;
38132;SDS011;23948;43.252;26.572;2022-12-10T13:43:53;92.80;;;56.70;;
38132;SDS011;23948;43.252;26.572;2022-12-10T13:49:22;27.15;;;11.82;;
38132;SDS011;23948;43.252;26.572;2022-12-10T13:51:54;23.88;;;10.07;;
38132;SDS011;23948;43.252;26.572;2022-12-10T14:02:13;32.73;;;10.63;;
38132;SDS011;23948;43.252;26.572;2022-12-10T14:07:25;22.42;;;8.80;;
38132;SDS011;23948;43.252;26.572;2022-12-10T14:09:52;24.20;;;10.25;;
38132;SDS011;23948;43.252;26.572;2022-12-10T14:14:47;21.40;;;8.18;;
38132;SDS011;23948;43.252;26.572;2022-12-10T14:17:19;26.40;;;9.13;;
38132;SDS011;23948;43.252;26.572;2022-12-10T14:19:46;20.23;;;8.15;;
38132;SDS011;23948;43.252;26.572;2022-12-10T14:22:16;28.52;;;10.32;;
38132;SDS011;23948;43.252;26.572;2022-12-10T14:24:41;24.83;;;9.52;;
38132;SDS011;23948;43.252;26.572;2022-12-10T14:29:33;17.90;;;9.20;;
38132;SDS011;23948;43.252;26.572;2022-12-10T14:31:58;25.80;;;11.13;;
38132;SDS011;23948;43.252;26.572;2022-12-10T14:34:25;23.55;;;9.43;;
38132;SDS011;23948;43.252;26.572;2022-12-10T14:36:52;21.70;;;9.55;;
38132;SDS011;23948;43.252;26.572;2022-12-10T14:39:19;35.42;;;17.95;;
38132;SDS011;23948;43.252;26.572;2022-12-10T14:41:46;28.10;;;11.95;;
38132;SDS011;23948;43.252;26.572;2022-12-10T14:44:12;32.60;;;10.45;;
38132;SDS011;23948;43.252;26.572;2022-12-10T14:46:38;24.33;;;10.13;;
38132;SDS011;23948;43.252;26.572;2022-12-10T14:49:04;30.33;;;16.65;;
38132;SDS011;23948;43.252;26.572;2022-12-10T14:51:33;53.90;;;32.15;;
38132;SDS011;23948;43.252;26.572;2022-12-10T14:53:58;33.92;;;17.50;;
38132;SDS011;23948;43.252;26.572;2022-12-10T14:56:32;29.25;;;13.77;;
38132;SDS011;23948;43.252;26.572;2022-12-10T15:01:30;31.40;;;11.82;;
38132;SDS011;23948;43.252;26.572;2022-12-10T15:03:58;35.35;;;17.48;;
38132;SDS011;23948;43.252;26.572;2022-12-10T15:06:24;34.95;;;13.20;;
38132;SDS011;23948;43.252;26.572;2022-12-10T15:08:49;37.95;;;22.55;;
38132;SDS011;23948;43.252;26.572;2022-12-10T15:11:18;30.38;;;16.73;;
38132;SDS011;23948;43.252;26.572;2022-12-10T15:13:44;41.47;;;23.20;;
38132;SDS011;23948;43.252;26.572;2022-12-10T15:16:16;41.78;;;27.58;;
38132;SDS011;23948;43.252;26.572;2022-12-10T15:18:45;55.47;;;33.50;;
38132;SDS011;23948;43.252;26.572;2022-12-10T15:23:40;41.53;;;23.83;;
38132;SDS011;23948;43.252;26.572;2022-12-10T15:26:28;43.00;;;23.33;;
38132;SDS011;23948;43.252;26.572;2022-12-10T15:29:05;54.72;;;27.75;;
38132;SDS011;23948;43.252;26.572;2022-12-10T15:31:38;52.67;;;26.38;;
38132;SDS011;23948;43.252;26.572;2022-12-10T15:34:07;42.15;;;19.83;;
38132;SDS011;23948;43.252;26.572;2022-12-10T15:36:40;36.80;;;21.35;;
38132;SDS011;23948;43.252;26.572;2022-12-10T15:39:13;44.72;;;25.63;;
38132;SDS011;23948;43.252;26.572;2022-12-10T15:41:44;37.78;;;19.70;;
38132;SDS011;23948;43.252;26.572;2022-12-10T15:46:51;24.23;;;11.43;;
38132;SDS011;23948;43.252;26.572;2022-12-10T15:49:22;31.30;;;10.88;;
38132;SDS011;23948;43.252;26.572;2022-12-10T15:51:47;28.77;;;14.18;;
38132;SDS011;23948;43.252;26.572;2022-12-10T15:54:19;25.40;;;11.27;;
38132;SDS011;23948;43.252;26.572;2022-12-10T15:56:45;22.65;;;9.90;;
38132;SDS011;23948;43.252;26.572;2022-12-10T15:59:10;23.23;;;8.57;;
38132;SDS011;23948;43.252;26.572;2022-12-10T16:01:35;18.15;;;8.13;;
38132;SDS011;23948;43.252;26.572;2022-12-10T16:04:01;19.77;;;9.00;;
38132;SDS011;23948;43.252;26.572;2022-12-10T16:06:26;20.98;;;7.90;;
38132;SDS011;23948;43.252;26.572;2022-12-10T16:08:51;20.80;;;8.85;;
38132;SDS011;23948;43.252;26.572;2022-12-10T16:11:17;26.48;;;9.65;;
38132;SDS011;23948;43.252;26.572;2022-12-10T16:13:45;24.05;;;10.57;;
38132;SDS011;23948;43.252;26.572;2022-12-10T16:16:12;22.98;;;10.10;;
38132;SDS011;23948;43.252;26.572;2022-12-10T16:18:38;20.35;;;10.20;;
38132;SDS011;23948;43.252;26.572;2022-12-10T16:21:04;20.23;;;8.95;;
38132;SDS011;23948;43.252;26.572;2022-12-10T16:23:29;23.17;;;8.30;;
38132;SDS011;23948;43.252;26.572;2022-12-10T16:25:55;26.38;;;8.32;;
38132;SDS011;23948;43.252;26.572;2022-12-10T16:28:21;19.45;;;8.32;;